createdAt,value
2018-07-24T00:00:40.534Z,1012.50
2018-07-24T00:01:40.528Z,1012.49
2018-07-24T00:02:40.511Z,1012.51
2018-07-24T00:03:40.499Z,1012.50
2018-07-24T00:04:40.490Z,1012.49
2018-07-24T00:05:40.485Z,1012.51
2018-07-24T00:06:40.464Z,1012.52
2018-07-24T00:07:40.455Z,1012.49
2018-07-24T00:08:40.442Z,1012.49
2018-07-24T00:09:40.430Z,1012.49
2018-07-24T00:10:40.427Z,1012.49
2018-07-24T00:11:40.407Z,1012.48
2018-07-24T00:12:40.400Z,1012.50
2018-07-24T00:13:40.383Z,1012.49
2018-07-24T00:14:40.371Z,1012.53
2018-07-24T00:15:40.362Z,1012.49
2018-07-24T00:16:40.347Z,1012.48
2018-07-24T00:17:40.335Z,1012.51
2018-07-24T00:18:40.325Z,1012.49
2018-07-24T00:19:40.311Z,1012.46
2018-07-24T00:20:40.300Z,1012.47
2018-07-24T00:21:40.288Z,1012.48
2018-07-24T00:22:40.277Z,1012.45
2018-07-24T00:23:40.273Z,1012.43
2018-07-24T00:24:40.254Z,1012.44
2018-07-24T00:25:40.241Z,1012.44
2018-07-24T00:26:40.227Z,1012.44
2018-07-24T00:27:40.218Z,1012.43
2018-07-24T00:28:40.205Z,1012.44
2018-07-24T00:29:40.193Z,1012.40
2018-07-24T00:30:40.181Z,1012.39
2018-07-24T00:31:40.172Z,1012.42
2018-07-24T00:32:40.155Z,1012.42
2018-07-24T00:33:40.145Z,1012.37
2018-07-24T00:34:40.132Z,1012.37
2018-07-24T00:35:40.121Z,1012.34
2018-07-24T00:36:40.108Z,1012.39
2018-07-24T00:37:40.095Z,1012.37
2018-07-24T00:38:40.084Z,1012.35
2018-07-24T00:39:40.076Z,1012.37
2018-07-24T00:40:40.063Z,1012.35
2018-07-24T00:41:40.048Z,1012.37
2018-07-24T00:42:40.035Z,1012.34
2018-07-24T00:43:40.023Z,1012.31
2018-07-24T00:44:40.011Z,1012.35
2018-07-24T00:45:40.007Z,1012.35
2018-07-24T00:46:39.989Z,1012.30
2018-07-24T00:47:40.047Z,1012.35
2018-07-24T00:48:39.965Z,1012.32
2018-07-24T00:49:39.950Z,1012.28
2018-07-24T00:50:39.940Z,1012.27
2018-07-24T00:51:39.925Z,1012.27
2018-07-24T00:52:39.913Z,1012.28
2018-07-24T00:53:39.907Z,1012.24
2018-07-24T00:54:39.889Z,1012.24
2018-07-24T00:55:39.881Z,1012.26
2018-07-24T00:56:39.864Z,1012.20
2018-07-24T00:57:39.856Z,1012.22
2018-07-24T00:58:39.842Z,1012.22
2018-07-24T00:59:39.828Z,1012.21
2018-07-24T01:00:39.815Z,1012.23
2018-07-24T01:01:39.804Z,1012.21
2018-07-24T01:02:39.791Z,1012.19
2018-07-24T01:03:39.779Z,1012.18
2018-07-24T01:04:39.766Z,1012.19
2018-07-24T01:05:39.755Z,1012.19
2018-07-24T01:06:39.743Z,1012.14
2018-07-24T01:07:39.732Z,1012.17
2018-07-24T01:08:39.775Z,1012.17
2018-07-24T01:09:39.731Z,1012.19
2018-07-24T01:10:39.692Z,1012.22
2018-07-24T01:11:39.679Z,1012.20
2018-07-24T01:12:39.671Z,1012.22
2018-07-24T01:13:39.655Z,1012.25
2018-07-24T01:14:39.642Z,1012.27
2018-07-24T01:15:39.628Z,1012.30
2018-07-24T01:16:39.616Z,1012.30
2018-07-24T01:17:39.606Z,1012.33
2018-07-24T01:18:39.592Z,1012.28
2018-07-24T01:19:39.580Z,1012.37
2018-07-24T01:20:39.566Z,1012.30
2018-07-24T01:21:39.553Z,1012.29
2018-07-24T01:22:39.542Z,1012.35
2018-07-24T01:23:39.532Z,1012.37
2018-07-24T01:24:39.518Z,1012.37
2018-07-24T01:25:39.503Z,1012.36
2018-07-24T01:26:39.491Z,1012.37
2018-07-24T01:27:39.478Z,1012.35
2018-07-24T01:28:39.468Z,1012.37
2018-07-24T01:29:39.453Z,1012.37
2018-07-24T01:30:39.440Z,1012.35
2018-07-24T01:31:39.429Z,1012.34
2018-07-24T01:32:39.419Z,1012.31
2018-07-24T01:33:39.404Z,1012.31
2018-07-24T01:34:39.390Z,1012.30
2018-07-24T01:35:39.381Z,1012.32
2018-07-24T01:36:39.369Z,1012.28
2018-07-24T01:37:39.353Z,1012.27
2018-07-24T01:38:39.349Z,1012.28
2018-07-24T01:39:39.326Z,1012.22
2018-07-24T01:40:39.313Z,1012.26
2018-07-24T01:41:39.300Z,1012.26
2018-07-24T01:42:39.289Z,1012.27
2018-07-24T01:43:39.275Z,1012.28
2018-07-24T01:44:39.262Z,1012.24
2018-07-24T01:45:39.252Z,1012.25
2018-07-24T01:46:39.237Z,1012.27
2018-07-24T01:47:39.226Z,1012.24
2018-07-24T01:48:39.211Z,1012.23
2018-07-24T01:49:39.198Z,1012.23
2018-07-24T01:50:39.185Z,1012.24
2018-07-24T01:51:39.172Z,1012.20
2018-07-24T01:52:39.160Z,1012.20
2018-07-24T01:53:39.148Z,1012.18
2018-07-24T01:54:39.139Z,1012.19
2018-07-24T01:55:39.121Z,1012.20
2018-07-24T01:56:39.108Z,1012.20
2018-07-24T01:57:39.094Z,1012.23
2018-07-24T01:58:39.083Z,1012.20
2018-07-24T01:59:39.070Z,1012.20
2018-07-24T02:00:39.058Z,1012.23
2018-07-24T02:01:39.048Z,1012.18
2018-07-24T02:02:39.035Z,1012.19
2018-07-24T02:03:39.017Z,1012.17
2018-07-24T02:04:39.005Z,1012.18
2018-07-24T02:05:38.992Z,1012.17
2018-07-24T02:06:38.984Z,1012.21
2018-07-24T02:07:38.966Z,1012.21
2018-07-24T02:08:38.953Z,1012.18
2018-07-24T02:09:38.940Z,1012.17
2018-07-24T02:10:38.928Z,1012.15
2018-07-24T02:11:38.916Z,1012.12
2018-07-24T02:12:38.901Z,1012.15
2018-07-24T02:13:38.887Z,1012.13
2018-07-24T02:14:38.875Z,1012.16
2018-07-24T02:15:38.862Z,1012.19
2018-07-24T02:16:38.853Z,1012.18
2018-07-24T02:17:38.838Z,1012.19
2018-07-24T02:18:38.822Z,1012.19
2018-07-24T02:19:38.809Z,1012.14
2018-07-24T02:20:38.801Z,1012.15
2018-07-24T02:21:38.791Z,1012.15
2018-07-24T02:22:38.770Z,1012.15
2018-07-24T02:23:38.757Z,1012.18
2018-07-24T02:24:38.744Z,1012.14
2018-07-24T02:25:38.734Z,1012.16
2018-07-24T02:26:38.726Z,1012.12
2018-07-24T02:27:38.705Z,1012.09
2018-07-24T02:28:38.691Z,1012.08
2018-07-24T02:29:38.678Z,1012.08
2018-07-24T02:30:38.665Z,1012.12
2018-07-24T02:31:38.653Z,1012.08
2018-07-24T02:32:38.638Z,1012.12
2018-07-24T02:33:38.627Z,1012.10
2018-07-24T02:34:38.613Z,1012.12
2018-07-24T02:35:38.601Z,1012.12
2018-07-24T02:36:38.590Z,1012.15
2018-07-24T02:37:38.573Z,1012.13
2018-07-24T02:38:38.560Z,1012.13
2018-07-24T02:39:38.551Z,1012.10
2018-07-24T02:40:38.534Z,1012.12
2018-07-24T02:41:38.525Z,1012.14
2018-07-24T02:42:38.506Z,1012.12
2018-07-24T02:43:38.494Z,1012.12
2018-07-24T02:44:38.482Z,1012.14
2018-07-24T02:45:38.470Z,1012.08
2018-07-24T02:46:38.454Z,1012.07
2018-07-24T02:47:38.441Z,1012.04
2018-07-24T02:48:38.429Z,1012.04
2018-07-24T02:49:38.414Z,1012.10
2018-07-24T02:50:38.402Z,1012.08
2018-07-24T02:51:38.387Z,1012.10
2018-07-24T02:52:38.376Z,1012.12
2018-07-24T02:53:38.413Z,1012.11
2018-07-24T02:54:38.346Z,1012.12
2018-07-24T02:55:38.336Z,1012.15
2018-07-24T02:56:38.320Z,1012.16
2018-07-24T02:57:38.307Z,1012.16
2018-07-24T02:58:38.292Z,1012.15
2018-07-24T02:59:38.281Z,1012.15
2018-07-24T03:00:38.268Z,1012.14
2018-07-24T03:01:38.253Z,1012.17
2018-07-24T03:02:38.240Z,1012.18
2018-07-24T03:03:38.228Z,1012.18
2018-07-24T03:04:38.216Z,1012.22
2018-07-24T03:05:38.199Z,1012.24
2018-07-24T03:06:38.193Z,1012.20
2018-07-24T03:07:38.171Z,1012.21
2018-07-24T03:08:38.159Z,1012.18
2018-07-24T03:09:38.151Z,1012.23
2018-07-24T03:10:38.132Z,1012.20
2018-07-24T03:11:38.118Z,1012.17
2018-07-24T03:12:38.104Z,1012.19
2018-07-24T03:13:38.095Z,1012.19
2018-07-24T03:14:38.080Z,1012.19
2018-07-24T03:15:38.064Z,1012.21
2018-07-24T03:16:38.051Z,1012.22
2018-07-24T03:17:38.040Z,1012.23
2018-07-24T03:18:38.026Z,1012.21
2018-07-24T03:19:38.011Z,1012.24
2018-07-24T03:20:38.002Z,1012.22
2018-07-24T03:21:37.984Z,1012.27
2018-07-24T03:22:37.971Z,1012.22
2018-07-24T03:23:37.956Z,1012.24
2018-07-24T03:24:37.944Z,1012.25
2018-07-24T03:25:37.930Z,1012.24
2018-07-24T03:26:37.916Z,1012.24
2018-07-24T03:27:37.902Z,1012.25
2018-07-24T03:28:37.889Z,1012.26
2018-07-24T03:29:37.876Z,1012.26
2018-07-24T03:30:37.864Z,1012.29
2018-07-24T03:31:37.852Z,1012.29
2018-07-24T03:32:37.837Z,1012.31
2018-07-24T03:33:37.822Z,1012.32
2018-07-24T03:34:37.805Z,1012.35
2018-07-24T03:35:37.793Z,1012.35
2018-07-24T03:36:37.782Z,1012.34
2018-07-24T03:37:37.766Z,1012.34
2018-07-24T03:38:37.753Z,1012.35
2018-07-24T03:39:37.749Z,1012.35
2018-07-24T03:40:37.725Z,1012.35
2018-07-24T03:41:37.711Z,1012.33
2018-07-24T03:42:37.701Z,1012.31
2018-07-24T03:43:37.686Z,1012.32
2018-07-24T03:44:37.670Z,1012.35
2018-07-24T03:45:37.661Z,1012.33
2018-07-24T03:46:37.642Z,1012.37
2018-07-24T03:47:37.634Z,1012.35
2018-07-24T03:48:37.620Z,1012.40
2018-07-24T03:49:37.607Z,1012.42
2018-07-24T03:50:37.590Z,1012.42
2018-07-24T03:51:37.575Z,1012.45
2018-07-24T03:52:37.561Z,1012.41
2018-07-24T03:53:37.550Z,1012.44
2018-07-24T03:54:37.537Z,1012.43
2018-07-24T03:55:37.526Z,1012.44
2018-07-24T03:56:37.511Z,1012.47
2018-07-24T03:57:37.496Z,1012.44
2018-07-24T03:58:37.481Z,1012.46
2018-07-24T03:59:37.465Z,1012.45
2018-07-24T04:00:37.458Z,1012.45
2018-07-24T04:01:37.440Z,1012.44
2018-07-24T04:02:37.425Z,1012.42
2018-07-24T04:03:37.413Z,1012.41
2018-07-24T04:04:37.401Z,1012.40
2018-07-24T04:05:37.385Z,1012.40
2018-07-24T04:06:37.369Z,1012.37
2018-07-24T04:07:37.361Z,1012.37
2018-07-24T04:08:37.345Z,1012.36
2018-07-24T04:09:37.329Z,1012.38
2018-07-24T04:10:37.315Z,1012.40
2018-07-24T04:11:37.302Z,1012.38
2018-07-24T04:12:37.290Z,1012.36
2018-07-24T04:13:37.278Z,1012.38
2018-07-24T04:14:37.259Z,1012.34
2018-07-24T04:15:37.248Z,1012.40
2018-07-24T04:16:37.234Z,1012.38
2018-07-24T04:17:37.221Z,1012.38
2018-07-24T04:18:37.209Z,1012.40
2018-07-24T04:19:37.202Z,1012.44
2018-07-24T04:20:37.179Z,1012.44
2018-07-24T04:21:37.167Z,1012.43
2018-07-24T04:22:37.152Z,1012.39
2018-07-24T04:23:37.139Z,1012.46
2018-07-24T04:24:37.123Z,1012.46
2018-07-24T04:25:37.111Z,1012.47
2018-07-24T04:26:37.097Z,1012.48
2018-07-24T04:27:37.090Z,1012.52
2018-07-24T04:28:37.069Z,1012.52
2018-07-24T04:29:37.063Z,1012.52
2018-07-24T04:30:37.043Z,1012.50
2018-07-24T04:31:37.030Z,1012.49
2018-07-24T04:32:37.015Z,1012.50
2018-07-24T04:33:37.005Z,1012.50
2018-07-24T04:34:36.988Z,1012.49
2018-07-24T04:35:36.975Z,1012.50
2018-07-24T04:36:36.959Z,1012.49
2018-07-24T04:37:36.948Z,1012.50
2018-07-24T04:38:36.933Z,1012.51
2018-07-24T04:39:36.918Z,1012.48
2018-07-24T04:40:36.909Z,1012.46
2018-07-24T04:41:36.894Z,1012.48
2018-07-24T04:42:36.877Z,1012.50
2018-07-24T04:43:36.865Z,1012.51
2018-07-24T04:44:36.855Z,1012.52
2018-07-24T04:45:36.839Z,1012.54
2018-07-24T04:46:36.823Z,1012.56
2018-07-24T04:47:36.811Z,1012.57
2018-07-24T04:48:36.803Z,1012.59
2018-07-24T04:49:36.787Z,1012.61
2018-07-24T04:50:36.768Z,1012.61
2018-07-24T04:51:36.756Z,1012.57
2018-07-24T04:52:36.742Z,1012.58
2018-07-24T04:53:36.730Z,1012.62
2018-07-24T04:54:36.721Z,1012.57
2018-07-24T04:55:36.703Z,1012.59
2018-07-24T04:56:36.690Z,1012.61
2018-07-24T04:57:36.683Z,1012.60
2018-07-24T04:58:36.665Z,1012.59
2018-07-24T04:59:36.647Z,1012.57
2018-07-24T05:00:36.635Z,1012.59
2018-07-24T05:01:36.625Z,1012.57
2018-07-24T05:02:36.629Z,1012.54
2018-07-24T05:03:36.596Z,1012.56
2018-07-24T05:04:36.583Z,1012.54
2018-07-24T05:05:36.568Z,1012.54
2018-07-24T05:06:36.592Z,1012.58
2018-07-24T05:07:36.541Z,1012.55
2018-07-24T05:08:36.531Z,1012.56
2018-07-24T05:09:36.572Z,1012.53
2018-07-24T05:10:36.607Z,1012.51
2018-07-24T05:11:36.487Z,1012.54
2018-07-24T05:12:36.473Z,1012.51
2018-07-24T05:13:36.461Z,1012.52
2018-07-24T05:14:36.450Z,1012.54
2018-07-24T05:15:36.440Z,1012.52
2018-07-24T05:16:36.432Z,1012.52
2018-07-24T05:17:36.408Z,1012.52
2018-07-24T05:18:36.393Z,1012.49
2018-07-24T05:19:36.382Z,1012.53
2018-07-24T05:20:36.372Z,1012.51
2018-07-24T05:21:36.355Z,1012.51
2018-07-24T05:22:36.350Z,1012.49
2018-07-24T05:23:36.372Z,1012.51
2018-07-24T05:24:36.320Z,1012.51
2018-07-24T05:25:36.303Z,1012.49
2018-07-24T05:26:36.289Z,1012.54
2018-07-24T05:27:36.278Z,1012.54
2018-07-24T05:28:36.264Z,1012.62
2018-07-24T05:29:36.254Z,1012.55
2018-07-24T05:30:36.238Z,1012.61
2018-07-24T05:31:36.226Z,1012.62
2018-07-24T05:32:36.219Z,1012.58
2018-07-24T05:33:36.200Z,1012.61
2018-07-24T05:34:36.187Z,1012.60
2018-07-24T05:35:36.175Z,1012.61
2018-07-24T05:36:36.161Z,1012.59
2018-07-24T05:37:36.149Z,1012.59
2018-07-24T05:38:36.139Z,1012.60
2018-07-24T05:39:36.122Z,1012.60
2018-07-24T05:40:36.113Z,1012.59
2018-07-24T05:41:36.098Z,1012.61
2018-07-24T05:42:36.085Z,1012.59
2018-07-24T05:43:36.072Z,1012.62
2018-07-24T05:44:36.063Z,1012.61
2018-07-24T05:45:36.046Z,1012.64
2018-07-24T05:46:36.032Z,1012.68
2018-07-24T05:47:36.021Z,1012.64
2018-07-24T05:48:36.043Z,1012.67
2018-07-24T05:49:35.999Z,1012.65
2018-07-24T05:50:35.991Z,1012.69
2018-07-24T05:51:35.967Z,1012.64
2018-07-24T05:52:35.958Z,1012.66
2018-07-24T05:53:35.945Z,1012.67
2018-07-24T05:54:35.932Z,1012.72
2018-07-24T05:55:35.922Z,1012.74
2018-07-24T05:56:35.907Z,1012.75
2018-07-24T05:57:35.896Z,1012.75
2018-07-24T05:58:35.895Z,1012.72
2018-07-24T05:59:35.872Z,1012.75
2018-07-24T06:00:35.860Z,1012.75
2018-07-24T06:01:35.848Z,1012.75
2018-07-24T06:02:35.834Z,1012.77
2018-07-24T06:03:35.822Z,1012.76
2018-07-24T06:04:35.812Z,1012.78
2018-07-24T06:05:35.802Z,1012.79
2018-07-24T06:06:35.788Z,1012.77
2018-07-24T06:07:35.773Z,1012.81
2018-07-24T06:08:35.759Z,1012.82
2018-07-24T06:09:35.749Z,1012.81
2018-07-24T06:10:35.736Z,1012.81
2018-07-24T06:11:35.731Z,1012.80
2018-07-24T06:12:35.711Z,1012.79
2018-07-24T06:13:35.700Z,1012.79
2018-07-24T06:14:35.688Z,1012.81
2018-07-24T06:15:35.673Z,1012.79
2018-07-24T06:16:35.687Z,1012.81
2018-07-24T06:17:35.651Z,1012.81
2018-07-24T06:18:35.645Z,1012.80
2018-07-24T06:19:35.628Z,1012.78
2018-07-24T06:20:35.616Z,1012.79
2018-07-24T06:21:35.610Z,1012.76
2018-07-24T06:22:35.593Z,1012.77
2018-07-24T06:23:35.603Z,1012.76
2018-07-24T06:24:35.568Z,1012.77
2018-07-24T06:25:35.559Z,1012.77
2018-07-24T06:26:35.548Z,1012.78
2018-07-24T06:27:35.534Z,1012.74
2018-07-24T06:28:35.521Z,1012.80
2018-07-24T06:29:35.514Z,1012.80
2018-07-24T06:30:35.499Z,1012.78
2018-07-24T06:31:35.486Z,1012.81
2018-07-24T06:32:35.474Z,1012.78
2018-07-24T06:33:35.463Z,1012.82
2018-07-24T06:34:35.450Z,1012.83
2018-07-24T06:35:35.440Z,1012.83
2018-07-24T06:36:35.438Z,1012.85
2018-07-24T06:37:35.417Z,1012.85
2018-07-24T06:38:35.404Z,1012.84
2018-07-24T06:39:35.402Z,1012.83
2018-07-24T06:40:35.383Z,1012.80
2018-07-24T06:41:35.371Z,1012.85
2018-07-24T06:42:35.360Z,1012.81
2018-07-24T06:43:35.352Z,1012.84
2018-07-24T06:44:35.338Z,1012.83
2018-07-24T06:45:35.325Z,1012.80
2018-07-24T06:46:35.314Z,1012.85
2018-07-24T06:47:35.300Z,1012.84
2018-07-24T06:48:35.291Z,1012.85
2018-07-24T06:49:35.285Z,1012.84
2018-07-24T06:50:35.273Z,1012.84
2018-07-24T06:51:35.344Z,1012.83
2018-07-24T06:52:35.247Z,1012.84
2018-07-24T06:53:35.235Z,1012.89
2018-07-24T06:54:35.223Z,1012.86
2018-07-24T06:55:35.214Z,1012.89
2018-07-24T06:56:35.221Z,1012.89
2018-07-24T06:57:35.191Z,1012.91
2018-07-24T06:58:35.179Z,1012.90
2018-07-24T06:59:35.170Z,1012.91
2018-07-24T07:00:35.160Z,1012.90
2018-07-24T07:01:35.151Z,1012.92
2018-07-24T07:02:35.138Z,1012.87
2018-07-24T07:03:35.126Z,1012.89
2018-07-24T07:04:35.115Z,1012.85
2018-07-24T07:05:35.106Z,1012.88
2018-07-24T07:06:35.094Z,1012.91
2018-07-24T07:07:35.095Z,1012.85
2018-07-24T07:08:35.073Z,1012.87
2018-07-24T07:09:35.066Z,1012.87
2018-07-24T07:10:35.062Z,1012.87
2018-07-24T07:11:35.044Z,1012.87
2018-07-24T07:12:35.034Z,1012.87
2018-07-24T07:13:35.056Z,1012.88
2018-07-24T07:14:35.012Z,1012.92
2018-07-24T07:15:35.000Z,1012.89
2018-07-24T07:16:34.993Z,1012.88
2018-07-24T07:17:34.980Z,1012.85
2018-07-24T07:18:34.968Z,1012.87
2018-07-24T07:19:34.957Z,1012.92
2018-07-24T07:20:34.980Z,1012.87
2018-07-24T07:21:34.939Z,1012.88
2018-07-24T07:22:34.929Z,1012.91
2018-07-24T07:23:34.920Z,1012.87
2018-07-24T07:24:34.908Z,1012.86
2018-07-24T07:25:34.899Z,1012.89
2018-07-24T07:26:34.888Z,1012.91
2018-07-24T07:27:34.879Z,1012.92
2018-07-24T07:28:34.877Z,1012.93
2018-07-24T07:29:34.864Z,1012.96
2018-07-24T07:30:34.849Z,1012.97
2018-07-24T07:31:34.839Z,1013.03
2018-07-24T07:32:34.836Z,1013.01
2018-07-24T07:33:34.822Z,1013.02
2018-07-24T07:34:34.809Z,1012.96
2018-07-24T07:35:34.800Z,1012.91
2018-07-24T07:36:34.792Z,1012.88
2018-07-24T07:37:34.782Z,1012.91
2018-07-24T07:38:34.771Z,1012.88
2018-07-24T07:39:34.767Z,1012.89
2018-07-24T07:40:34.754Z,1012.88
2018-07-24T07:41:34.744Z,1012.89
2018-07-24T07:42:34.734Z,1012.93
2018-07-24T07:43:34.729Z,1012.88
2018-07-24T07:44:34.767Z,1012.92
2018-07-24T07:45:34.711Z,1012.91
2018-07-24T07:46:34.696Z,1012.88
2018-07-24T07:47:34.688Z,1012.86
2018-07-24T07:48:34.680Z,1012.85
2018-07-24T07:49:34.670Z,1012.85
2018-07-24T07:50:34.668Z,1012.84
2018-07-24T07:51:34.689Z,1012.84
2018-07-24T07:52:34.729Z,1012.83
2018-07-24T07:53:34.635Z,1012.84
2018-07-24T07:54:34.625Z,1012.83
2018-07-24T07:55:34.617Z,1012.81
2018-07-24T07:56:34.613Z,1012.84
2018-07-24T07:57:34.604Z,1012.78
2018-07-24T07:58:34.594Z,1012.80
2018-07-24T07:59:34.582Z,1012.81
2018-07-24T08:00:34.579Z,1012.83
2018-07-24T08:01:34.567Z,1012.83
2018-07-24T08:02:34.612Z,1012.85
2018-07-24T08:03:34.545Z,1012.86
2018-07-24T08:04:34.538Z,1012.85
2018-07-24T08:05:34.529Z,1012.89
2018-07-24T08:06:34.525Z,1012.91
2018-07-24T08:07:34.511Z,1012.88
2018-07-24T08:08:34.503Z,1012.89
2018-07-24T08:09:34.497Z,1012.88
2018-07-24T08:10:34.487Z,1012.85
2018-07-24T08:11:34.478Z,1012.87
2018-07-24T08:12:34.473Z,1012.85
2018-07-24T08:13:34.462Z,1012.86
2018-07-24T08:14:34.453Z,1012.86
2018-07-24T08:15:34.448Z,1012.78
2018-07-24T08:16:34.441Z,1012.78
2018-07-24T08:17:34.432Z,1012.79
2018-07-24T08:18:34.429Z,1012.78
2018-07-24T08:19:34.414Z,1012.78
2018-07-24T08:20:34.404Z,1012.77
2018-07-24T08:21:34.401Z,1012.73
2018-07-24T08:22:34.393Z,1012.74
2018-07-24T08:23:34.379Z,1012.72
2018-07-24T08:24:34.371Z,1012.74
2018-07-24T08:25:34.363Z,1012.75
2018-07-24T08:26:34.362Z,1012.76
2018-07-24T08:27:34.346Z,1012.73
2018-07-24T08:28:34.340Z,1012.72
2018-07-24T08:29:34.331Z,1012.72
2018-07-24T08:30:34.323Z,1012.74
2018-07-24T08:31:34.317Z,1012.77
2018-07-24T08:32:34.323Z,1012.77
2018-07-24T08:33:34.333Z,1012.73
2018-07-24T08:34:34.291Z,1012.76
2018-07-24T08:35:34.285Z,1012.72
2018-07-24T08:36:34.277Z,1012.71
2018-07-24T08:37:34.273Z,1012.69
2018-07-24T08:38:34.262Z,1012.65
2018-07-24T08:39:34.253Z,1012.67
2018-07-24T08:40:34.245Z,1012.61
2018-07-24T08:41:34.240Z,1012.63
2018-07-24T08:42:34.239Z,1012.62
2018-07-24T08:43:34.223Z,1012.63
2018-07-24T08:44:34.217Z,1012.58
2018-07-24T08:45:34.211Z,1012.55
2018-07-24T08:46:34.200Z,1012.59
2018-07-24T08:47:34.199Z,1012.60
2018-07-24T08:48:34.190Z,1012.59
2018-07-24T08:49:34.177Z,1012.60
2018-07-24T08:50:34.170Z,1012.51
2018-07-24T08:51:34.164Z,1012.54
2018-07-24T08:52:34.275Z,1012.54
2018-07-24T08:53:34.392Z,1012.57
2018-07-24T08:54:34.297Z,1012.55
2018-07-24T08:55:34.524Z,1012.56
2018-07-24T08:56:34.127Z,1012.54
2018-07-24T08:57:34.170Z,1012.53
2018-07-24T08:58:34.112Z,1012.50
2018-07-24T08:59:34.105Z,1012.48
2018-07-24T09:00:34.166Z,1012.54
2018-07-24T09:01:34.091Z,1012.54
2018-07-24T09:02:34.084Z,1012.47
2018-07-24T09:03:34.180Z,1012.40
2018-07-24T09:04:34.069Z,1012.36
2018-07-24T09:05:34.062Z,1012.37
2018-07-24T09:06:34.055Z,1012.35
2018-07-24T09:07:34.055Z,1012.34
2018-07-24T09:08:34.042Z,1012.40
2018-07-24T09:09:34.034Z,1012.45
2018-07-24T09:10:34.028Z,1012.40
2018-07-24T09:11:34.020Z,1012.39
2018-07-24T09:12:34.016Z,1012.30
2018-07-24T09:13:34.009Z,1012.36
2018-07-24T09:14:33.999Z,1012.42
2018-07-24T09:15:33.997Z,1012.39
2018-07-24T09:16:33.985Z,1012.38
2018-07-24T09:17:33.978Z,1012.39
2018-07-24T09:18:33.971Z,1012.39
2018-07-24T09:19:33.966Z,1012.36
2018-07-24T09:20:33.957Z,1012.36
2018-07-24T09:21:33.955Z,1012.38
2018-07-24T09:22:33.944Z,1012.39
2018-07-24T09:23:33.938Z,1012.39
2018-07-24T09:24:33.931Z,1012.39
2018-07-24T09:25:33.924Z,1012.41
2018-07-24T09:26:33.915Z,1012.44
2018-07-24T09:27:33.909Z,1012.39
2018-07-24T09:28:33.904Z,1012.44
2018-07-24T09:29:33.898Z,1012.44
2018-07-24T09:30:33.919Z,1012.45
2018-07-24T09:31:33.887Z,1012.46
2018-07-24T09:32:33.883Z,1012.42
2018-07-24T09:33:33.870Z,1012.42
2018-07-24T09:34:33.864Z,1012.41
2018-07-24T09:35:33.858Z,1012.40
2018-07-24T09:36:33.856Z,1012.36
2018-07-24T09:37:33.851Z,1012.40
2018-07-24T09:38:33.841Z,1012.37
2018-07-24T09:39:33.840Z,1012.34
2018-07-24T09:40:33.901Z,1012.36
2018-07-24T09:41:33.829Z,1012.37
2018-07-24T09:42:33.820Z,1012.29
2018-07-24T09:43:33.812Z,1012.33
2018-07-24T09:44:33.818Z,1012.33
2018-07-24T09:45:33.800Z,1012.34
2018-07-24T09:46:33.789Z,1012.24
2018-07-24T09:47:33.784Z,1012.26
2018-07-24T09:48:33.779Z,1012.28
2018-07-24T09:49:33.784Z,1012.27
2018-07-24T09:50:33.774Z,1012.30
2018-07-24T09:51:33.762Z,1012.28
2018-07-24T09:52:33.756Z,1012.29
2018-07-24T09:53:33.751Z,1012.32
2018-07-24T09:54:33.754Z,1012.42
2018-07-24T09:55:33.741Z,1012.41
2018-07-24T09:56:33.732Z,1012.39
2018-07-24T09:57:33.727Z,1012.29
2018-07-24T09:58:33.719Z,1012.29
2018-07-24T09:59:33.717Z,1012.39
2018-07-24T10:00:33.709Z,1012.24
2018-07-24T10:01:33.702Z,1012.23
2018-07-24T10:02:33.697Z,1012.22
2018-07-24T10:03:33.692Z,1012.26
2018-07-24T10:04:33.686Z,1012.26
2018-07-24T10:05:33.683Z,1012.26
2018-07-24T10:06:33.675Z,1012.30
2018-07-24T10:07:33.666Z,1012.24
2018-07-24T10:08:33.666Z,1012.27
2018-07-24T10:09:33.657Z,1012.31
2018-07-24T10:10:33.650Z,1012.24
2018-07-24T10:11:33.644Z,1012.22
2018-07-24T10:12:33.652Z,1012.19
2018-07-24T10:13:33.634Z,1012.22
2018-07-24T10:14:33.633Z,1012.24
2018-07-24T10:15:33.622Z,1012.29
2018-07-24T10:16:33.684Z,1012.26
2018-07-24T10:17:33.611Z,1012.19
2018-07-24T10:18:33.602Z,1012.18
2018-07-24T10:19:33.597Z,1012.15
2018-07-24T10:20:33.595Z,1012.16
2018-07-24T10:21:33.587Z,1012.15
2018-07-24T10:22:33.577Z,1012.13
2018-07-24T10:23:33.578Z,1012.20
2018-07-24T10:24:33.645Z,1012.17
2018-07-24T10:25:33.576Z,1012.12
2018-07-24T10:26:33.555Z,1012.17
2018-07-24T10:27:33.551Z,1012.22
2018-07-24T10:28:33.546Z,1012.16
2018-07-24T10:29:33.539Z,1012.17
2018-07-24T10:30:33.533Z,1012.14
2018-07-24T10:31:33.529Z,1012.17
2018-07-24T10:32:33.521Z,1012.21
2018-07-24T10:33:33.516Z,1012.18
2018-07-24T10:34:33.508Z,1012.21
2018-07-24T10:35:33.505Z,1012.14
2018-07-24T10:36:33.584Z,1012.14
2018-07-24T10:37:33.494Z,1012.08
2018-07-24T10:38:33.488Z,1012.12
2018-07-24T10:39:33.481Z,1012.11
2018-07-24T10:40:33.481Z,1012.10
2018-07-24T10:41:33.473Z,1012.11
2018-07-24T10:42:33.465Z,1012.06
2018-07-24T10:43:33.457Z,1012.06
2018-07-24T10:44:33.478Z,1012.04
2018-07-24T10:45:33.451Z,1011.98
2018-07-24T10:46:33.447Z,1012.01
2018-07-24T10:47:33.439Z,1012.01
2018-07-24T10:48:33.430Z,1012.01
2018-07-24T10:49:33.429Z,1011.98
2018-07-24T10:50:33.428Z,1012.00
2018-07-24T10:51:33.440Z,1011.96
2018-07-24T10:52:33.428Z,1011.99
2018-07-24T10:53:33.403Z,1011.95
2018-07-24T10:54:33.399Z,1011.95
2018-07-24T10:55:33.397Z,1011.99
2018-07-24T10:56:33.388Z,1011.97
2018-07-24T10:57:33.381Z,1011.96
2018-07-24T10:58:33.376Z,1011.91
2018-07-24T10:59:33.373Z,1011.94
2018-07-24T11:00:33.366Z,1011.90
2018-07-24T11:01:33.360Z,1011.91
2018-07-24T11:02:33.356Z,1011.92
2018-07-24T11:03:33.350Z,1011.81
2018-07-24T11:04:33.344Z,1011.80
2018-07-24T11:05:33.345Z,1011.83
2018-07-24T11:06:33.334Z,1011.79
2018-07-24T11:07:33.329Z,1011.75
2018-07-24T11:08:33.330Z,1011.78
2018-07-24T11:09:33.319Z,1011.74
2018-07-24T11:10:33.314Z,1011.77
2018-07-24T11:11:33.310Z,1011.77
2018-07-24T11:12:33.307Z,1011.73
2018-07-24T11:13:33.298Z,1011.75
2018-07-24T11:14:33.297Z,1011.76
2018-07-24T11:15:33.297Z,1011.74
2018-07-24T11:16:33.331Z,1011.77
2018-07-24T11:17:33.279Z,1011.73
2018-07-24T11:18:33.274Z,1011.73
2018-07-24T11:19:33.268Z,1011.75
2018-07-24T11:20:33.263Z,1011.78
2018-07-24T11:21:33.260Z,1011.84
2018-07-24T11:22:33.362Z,1011.79
2018-07-24T11:23:33.252Z,1011.74
2018-07-24T11:24:33.242Z,1011.77
2018-07-24T11:25:33.248Z,1011.75
2018-07-24T11:26:33.232Z,1011.77
2018-07-24T11:27:33.229Z,1011.76
2018-07-24T11:28:33.224Z,1011.76
2018-07-24T11:29:33.223Z,1011.82
2018-07-24T11:30:33.215Z,1011.76
2018-07-24T11:31:33.210Z,1011.67
2018-07-24T11:32:33.213Z,1011.70
2018-07-24T11:33:33.284Z,1011.69
2018-07-24T11:34:33.192Z,1011.67
2018-07-24T11:35:33.257Z,1011.66
2018-07-24T11:36:33.185Z,1011.69
2018-07-24T11:37:33.182Z,1011.71
2018-07-24T11:38:33.189Z,1011.66
2018-07-24T11:39:33.168Z,1011.69
2018-07-24T11:40:33.164Z,1011.67
2018-07-24T11:41:33.160Z,1011.70
2018-07-24T11:42:33.161Z,1011.70
2018-07-24T11:43:33.148Z,1011.68
2018-07-24T11:44:33.145Z,1011.70
2018-07-24T11:45:33.140Z,1011.68
2018-07-24T11:46:33.166Z,1011.71
2018-07-24T11:47:33.129Z,1011.68
2018-07-24T11:48:33.125Z,1011.71
2018-07-24T11:49:33.122Z,1011.69
2018-07-24T11:50:33.117Z,1011.67
2018-07-24T11:51:33.170Z,1011.66
2018-07-24T11:52:33.104Z,1011.62
2018-07-24T11:53:33.102Z,1011.61
2018-07-24T11:54:33.095Z,1011.59
2018-07-24T11:55:33.101Z,1011.63
2018-07-24T11:56:33.096Z,1011.60
2018-07-24T11:57:33.125Z,1011.56
2018-07-24T11:58:33.126Z,1011.62
2018-07-24T11:59:33.080Z,1011.62
2018-07-24T12:00:33.067Z,1011.57
2018-07-24T12:01:33.062Z,1011.58
2018-07-24T12:02:33.057Z,1011.61
2018-07-24T12:03:33.084Z,1011.59
2018-07-24T12:04:33.049Z,1011.54
2018-07-24T12:05:33.043Z,1011.58